sensor_id;sensor_type;location;lat;lon;timestamp;P1;durP1;ratioP1;P2;durP2;ratioP2
14722;SDS011;7452;55.594;12.986;2022-07-25T00:01:42;4.10;;;3.10;;
14722;SDS011;7452;55.594;12.986;2022-07-25T00:04:10;4.93;;;3.00;;
14722;SDS011;7452;55.594;12.986;2022-07-25T00:06:38;4.53;;;3.30;;
14722;SDS011;7452;55.594;12.986;2022-07-25T00:09:05;5.67;;;3.10;;
14722;SDS011;7452;55.594;12.986;2022-07-25T00:11:34;5.30;;;3.10;;
14722;SDS011;7452;55.594;12.986;2022-07-25T00:14:01;3.33;;;3.03;;
14722;SDS011;7452;55.594;12.986;2022-07-25T00:16:28;3.30;;;3.00;;
14722;SDS011;7452;55.594;12.986;2022-07-25T00:18:55;6.00;;;3.40;;
14722;SDS011;7452;55.594;12.986;2022-07-25T00:21:22;6.07;;;3.30;;
14722;SDS011;7452;55.594;12.986;2022-07-25T00:23:49;4.60;;;3.30;;
14722;SDS011;7452;55.594;12.986;2022-07-25T00:26:16;4.50;;;3.30;;
14722;SDS011;7452;55.594;12.986;2022-07-25T00:28:44;7.43;;;3.70;;
14722;SDS011;7452;55.594;12.986;2022-07-25T00:31:11;4.10;;;3.30;;
14722;SDS011;7452;55.594;12.986;2022-07-25T00:33:38;3.47;;;3.00;;
14722;SDS011;7452;55.594;12.986;2022-07-25T00:36:05;5.17;;;3.13;;
14722;SDS011;7452;55.594;12.986;2022-07-25T00:38:32;3.50;;;3.20;;
14722;SDS011;7452;55.594;12.986;2022-07-25T00:40:59;4.73;;;3.53;;
14722;SDS011;7452;55.594;12.986;2022-07-25T00:43:28;5.37;;;3.00;;
14722;SDS011;7452;55.594;12.986;2022-07-25T00:45:56;3.47;;;3.13;;
14722;SDS011;7452;55.594;12.986;2022-07-25T00:48:23;4.57;;;3.30;;
14722;SDS011;7452;55.594;12.986;2022-07-25T00:50:50;3.60;;;3.30;;
14722;SDS011;7452;55.594;12.986;2022-07-25T00:53:17;5.30;;;3.50;;
14722;SDS011;7452;55.594;12.986;2022-07-25T00:55:44;3.50;;;3.20;;
14722;SDS011;7452;55.594;12.986;2022-07-25T00:58:12;10.67;;;3.73;;
14722;SDS011;7452;55.594;12.986;2022-07-25T01:00:39;4.67;;;3.40;;
14722;SDS011;7452;55.594;12.986;2022-07-25T01:03:07;6.10;;;3.50;;
14722;SDS011;7452;55.594;12.986;2022-07-25T01:05:34;4.17;;;3.27;;
14722;SDS011;7452;55.594;12.986;2022-07-25T01:08:01;3.90;;;3.47;;
14722;SDS011;7452;55.594;12.986;2022-07-25T01:10:28;4.10;;;3.20;;
14722;SDS011;7452;55.594;12.986;2022-07-25T01:12:56;5.60;;;3.63;;
14722;SDS011;7452;55.594;12.986;2022-07-25T01:15:24;4.47;;;3.30;;
14722;SDS011;7452;55.594;12.986;2022-07-25T01:17:51;4.53;;;3.53;;
14722;SDS011;7452;55.594;12.986;2022-07-25T01:20:20;4.17;;;3.53;;
14722;SDS011;7452;55.594;12.986;2022-07-25T01:22:48;6.77;;;3.40;;
14722;SDS011;7452;55.594;12.986;2022-07-25T01:25:15;6.17;;;3.60;;
14722;SDS011;7452;55.594;12.986;2022-07-25T01:27:44;5.17;;;3.57;;
14722;SDS011;7452;55.594;12.986;2022-07-25T01:30:12;3.50;;;3.10;;
14722;SDS011;7452;55.594;12.986;2022-07-25T01:32:40;3.70;;;3.30;;
14722;SDS011;7452;55.594;12.986;2022-07-25T01:35:09;3.97;;;3.40;;
14722;SDS011;7452;55.594;12.986;2022-07-25T01:37:38;6.10;;;3.33;;
14722;SDS011;7452;55.594;12.986;2022-07-25T01:40:06;4.70;;;3.60;;
14722;SDS011;7452;55.594;12.986;2022-07-25T01:42:33;4.10;;;3.70;;
14722;SDS011;7452;55.594;12.986;2022-07-25T01:45:01;9.00;;;3.43;;
14722;SDS011;7452;55.594;12.986;2022-07-25T01:47:29;4.17;;;3.73;;
14722;SDS011;7452;55.594;12.986;2022-07-25T01:49:55;4.37;;;3.63;;
14722;SDS011;7452;55.594;12.986;2022-07-25T01:52:22;5.13;;;3.50;;
14722;SDS011;7452;55.594;12.986;2022-07-25T01:54:51;3.67;;;3.23;;
14722;SDS011;7452;55.594;12.986;2022-07-25T01:57:18;4.03;;;3.43;;
14722;SDS011;7452;55.594;12.986;2022-07-25T01:59:45;5.60;;;3.37;;
14722;SDS011;7452;55.594;12.986;2022-07-25T02:02:11;4.10;;;3.30;;
14722;SDS011;7452;55.594;12.986;2022-07-25T02:04:38;6.27;;;3.57;;
14722;SDS011;7452;55.594;12.986;2022-07-25T02:07:05;4.97;;;3.30;;
14722;SDS011;7452;55.594;12.986;2022-07-25T02:09:32;3.43;;;3.07;;
14722;SDS011;7452;55.594;12.986;2022-07-25T02:12:01;5.70;;;3.77;;
14722;SDS011;7452;55.594;12.986;2022-07-25T02:14:28;3.63;;;3.07;;
14722;SDS011;7452;55.594;12.986;2022-07-25T02:16:55;4.93;;;3.40;;
14722;SDS011;7452;55.594;12.986;2022-07-25T02:19:22;5.37;;;3.37;;
14722;SDS011;7452;55.594;12.986;2022-07-25T02:21:49;4.43;;;3.13;;
14722;SDS011;7452;55.594;12.986;2022-07-25T02:24:16;3.30;;;2.93;;
14722;SDS011;7452;55.594;12.986;2022-07-25T02:26:43;5.60;;;3.30;;
14722;SDS011;7452;55.594;12.986;2022-07-25T02:29:11;3.83;;;3.13;;
14722;SDS011;7452;55.594;12.986;2022-07-25T02:31:38;3.20;;;2.90;;
14722;SDS011;7452;55.594;12.986;2022-07-25T02:34:05;4.57;;;3.23;;
14722;SDS011;7452;55.594;12.986;2022-07-25T02:36:32;4.03;;;2.70;;
14722;SDS011;7452;55.594;12.986;2022-07-25T02:38:59;4.23;;;3.30;;
14722;SDS011;7452;55.594;12.986;2022-07-25T02:41:26;4.53;;;3.57;;
14722;SDS011;7452;55.594;12.986;2022-07-25T02:43:53;3.30;;;2.83;;
14722;SDS011;7452;55.594;12.986;2022-07-25T02:46:22;4.13;;;3.53;;
14722;SDS011;7452;55.594;12.986;2022-07-25T02:48:49;4.00;;;3.23;;
14722;SDS011;7452;55.594;12.986;2022-07-25T02:51:16;4.30;;;3.40;;
14722;SDS011;7452;55.594;12.986;2022-07-25T02:53:43;3.80;;;3.20;;
14722;SDS011;7452;55.594;12.986;2022-07-25T02:56:10;4.53;;;3.43;;
14722;SDS011;7452;55.594;12.986;2022-07-25T02:58:37;4.80;;;3.40;;
14722;SDS011;7452;55.594;12.986;2022-07-25T03:01:04;4.23;;;3.50;;
14722;SDS011;7452;55.594;12.986;2022-07-25T03:03:32;4.10;;;3.20;;
14722;SDS011;7452;55.594;12.986;2022-07-25T03:05:59;3.73;;;3.10;;
14722;SDS011;7452;55.594;12.986;2022-07-25T03:08:26;6.50;;;3.30;;
14722;SDS011;7452;55.594;12.986;2022-07-25T03:10:53;6.03;;;3.10;;
14722;SDS011;7452;55.594;12.986;2022-07-25T03:13:20;4.73;;;3.37;;
14722;SDS011;7452;55.594;12.986;2022-07-25T03:15:47;3.70;;;3.30;;
14722;SDS011;7452;55.594;12.986;2022-07-25T03:18:14;5.50;;;3.40;;
14722;SDS011;7452;55.594;12.986;2022-07-25T03:20:43;4.43;;;3.57;;
14722;SDS011;7452;55.594;12.986;2022-07-25T03:23:09;3.47;;;3.17;;
14722;SDS011;7452;55.594;12.986;2022-07-25T03:25:36;4.20;;;3.37;;
14722;SDS011;7452;55.594;12.986;2022-07-25T03:28:03;3.43;;;3.13;;
14722;SDS011;7452;55.594;12.986;2022-07-25T03:30:30;4.50;;;3.20;;
14722;SDS011;7452;55.594;12.986;2022-07-25T03:32:57;5.40;;;3.13;;
14722;SDS011;7452;55.594;12.986;2022-07-25T03:35:24;5.33;;;3.03;;
14722;SDS011;7452;55.594;12.986;2022-07-25T03:37:53;4.87;;;3.27;;
14722;SDS011;7452;55.594;12.986;2022-07-25T03:40:20;3.60;;;3.30;;
14722;SDS011;7452;55.594;12.986;2022-07-25T03:42:47;5.07;;;2.97;;
14722;SDS011;7452;55.594;12.986;2022-07-25T03:45:14;4.10;;;3.30;;
14722;SDS011;7452;55.594;12.986;2022-07-25T03:47:41;4.37;;;3.00;;
14722;SDS011;7452;55.594;12.986;2022-07-25T03:50:08;3.77;;;2.70;;
14722;SDS011;7452;55.594;12.986;2022-07-25T03:52:36;3.70;;;2.80;;
14722;SDS011;7452;55.594;12.986;2022-07-25T03:55:05;5.10;;;3.17;;
14722;SDS011;7452;55.594;12.986;2022-07-25T03:57:34;3.63;;;3.20;;
14722;SDS011;7452;55.594;12.986;2022-07-25T04:00:01;3.30;;;3.00;;
14722;SDS011;7452;55.594;12.986;2022-07-25T04:02:29;3.30;;;3.00;;
14722;SDS011;7452;55.594;12.986;2022-07-25T04:04:56;3.80;;;3.37;;
14722;SDS011;7452;55.594;12.986;2022-07-25T04:07:23;3.57;;;3.20;;
14722;SDS011;7452;55.594;12.986;2022-07-25T04:09:50;3.37;;;2.90;;
14722;SDS011;7452;55.594;12.986;2022-07-25T04:12:18;4.07;;;3.00;;
14722;SDS011;7452;55.594;12.986;2022-07-25T04:14:45;5.00;;;2.80;;
14722;SDS011;7452;55.594;12.986;2022-07-25T04:17:12;5.40;;;3.43;;
14722;SDS011;7452;55.594;12.986;2022-07-25T04:19:39;5.10;;;3.07;;
14722;SDS011;7452;55.594;12.986;2022-07-25T04:22:06;4.07;;;2.80;;
14722;SDS011;7452;55.594;12.986;2022-07-25T04:24:33;4.57;;;3.10;;
14722;SDS011;7452;55.594;12.986;2022-07-25T04:27:00;3.53;;;2.77;;
14722;SDS011;7452;55.594;12.986;2022-07-25T04:29:28;5.10;;;2.93;;
14722;SDS011;7452;55.594;12.986;2022-07-25T04:31:55;4.67;;;3.10;;
14722;SDS011;7452;55.594;12.986;2022-07-25T04:34:23;7.47;;;3.37;;
14722;SDS011;7452;55.594;12.986;2022-07-25T04:36:50;3.60;;;3.20;;
14722;SDS011;7452;55.594;12.986;2022-07-25T04:39:17;3.20;;;2.90;;
14722;SDS011;7452;55.594;12.986;2022-07-25T04:41:44;3.90;;;2.70;;
14722;SDS011;7452;55.594;12.986;2022-07-25T04:44:11;5.13;;;3.00;;
14722;SDS011;7452;55.594;12.986;2022-07-25T04:46:40;3.00;;;2.70;;
14722;SDS011;7452;55.594;12.986;2022-07-25T04:49:07;2.60;;;2.40;;
14722;SDS011;7452;55.594;12.986;2022-07-25T04:51:34;5.90;;;2.80;;
14722;SDS011;7452;55.594;12.986;2022-07-25T04:54:01;3.93;;;3.00;;
14722;SDS011;7452;55.594;12.986;2022-07-25T04:56:27;2.93;;;2.60;;
14722;SDS011;7452;55.594;12.986;2022-07-25T04:58:54;4.90;;;2.80;;
14722;SDS011;7452;55.594;12.986;2022-07-25T05:01:21;4.37;;;3.10;;
14722;SDS011;7452;55.594;12.986;2022-07-25T05:03:50;3.40;;;2.90;;
14722;SDS011;7452;55.594;12.986;2022-07-25T05:06:17;2.97;;;2.63;;
14722;SDS011;7452;55.594;12.986;2022-07-25T05:08:44;2.90;;;2.70;;
14722;SDS011;7452;55.594;12.986;2022-07-25T05:11:11;4.57;;;2.70;;
14722;SDS011;7452;55.594;12.986;2022-07-25T05:13:38;3.23;;;2.83;;
14722;SDS011;7452;55.594;12.986;2022-07-25T05:16:05;5.87;;;2.73;;
14722;SDS011;7452;55.594;12.986;2022-07-25T05:18:32;4.67;;;2.60;;
14722;SDS011;7452;55.594;12.986;2022-07-25T05:21:01;2.27;;;2.10;;
14722;SDS011;7452;55.594;12.986;2022-07-25T05:23:28;3.10;;;2.43;;
14722;SDS011;7452;55.594;12.986;2022-07-25T05:25:55;2.53;;;2.33;;
14722;SDS011;7452;55.594;12.986;2022-07-25T05:28:21;3.17;;;2.50;;
14722;SDS011;7452;55.594;12.986;2022-07-25T05:30:49;4.10;;;2.43;;
14722;SDS011;7452;55.594;12.986;2022-07-25T05:33:16;3.53;;;2.57;;
14722;SDS011;7452;55.594;12.986;2022-07-25T05:35:43;2.90;;;2.13;;
14722;SDS011;7452;55.594;12.986;2022-07-25T05:38:11;3.93;;;2.80;;
14722;SDS011;7452;55.594;12.986;2022-07-25T05:40:38;3.10;;;2.73;;
14722;SDS011;7452;55.594;12.986;2022-07-25T05:43:05;3.03;;;2.40;;
14722;SDS011;7452;55.594;12.986;2022-07-25T05:45:32;2.90;;;2.63;;
14722;SDS011;7452;55.594;12.986;2022-07-25T05:47:59;2.93;;;2.30;;
14722;SDS011;7452;55.594;12.986;2022-07-25T05:50:25;2.50;;;2.13;;
14722;SDS011;7452;55.594;12.986;2022-07-25T05:52:52;4.23;;;2.70;;
14722;SDS011;7452;55.594;12.986;2022-07-25T05:55:21;2.63;;;1.77;;
14722;SDS011;7452;55.594;12.986;2022-07-25T05:57:48;2.63;;;2.30;;
14722;SDS011;7452;55.594;12.986;2022-07-25T06:00:15;2.30;;;2.10;;
14722;SDS011;7452;55.594;12.986;2022-07-25T06:02:42;2.57;;;2.37;;
14722;SDS011;7452;55.594;12.986;2022-07-25T06:05:09;2.20;;;2.00;;
14722;SDS011;7452;55.594;12.986;2022-07-25T06:07:36;2.30;;;2.10;;
14722;SDS011;7452;55.594;12.986;2022-07-25T06:10:03;3.33;;;2.60;;
14722;SDS011;7452;55.594;12.986;2022-07-25T06:12:32;3.07;;;2.10;;
14722;SDS011;7452;55.594;12.986;2022-07-25T06:14:59;2.90;;;2.13;;
14722;SDS011;7452;55.594;12.986;2022-07-25T06:17:26;3.53;;;2.13;;
14722;SDS011;7452;55.594;12.986;2022-07-25T06:19:53;2.57;;;2.37;;
14722;SDS011;7452;55.594;12.986;2022-07-25T06:22:20;2.30;;;2.10;;
14722;SDS011;7452;55.594;12.986;2022-07-25T06:24:47;2.80;;;2.20;;
14722;SDS011;7452;55.594;12.986;2022-07-25T06:27:14;2.20;;;2.00;;
14722;SDS011;7452;55.594;12.986;2022-07-25T06:29:42;2.43;;;1.90;;
14722;SDS011;7452;55.594;12.986;2022-07-25T06:32:09;3.40;;;2.40;;
14722;SDS011;7452;55.594;12.986;2022-07-25T06:34:36;3.50;;;2.20;;
14722;SDS011;7452;55.594;12.986;2022-07-25T06:37:03;2.03;;;1.83;;
14722;SDS011;7452;55.594;12.986;2022-07-25T06:39:30;3.53;;;2.20;;
14722;SDS011;7452;55.594;12.986;2022-07-25T06:41:57;2.70;;;2.10;;
14722;SDS011;7452;55.594;12.986;2022-07-25T06:44:25;3.80;;;2.07;;
14722;SDS011;7452;55.594;12.986;2022-07-25T06:46:54;2.00;;;1.90;;
14722;SDS011;7452;55.594;12.986;2022-07-25T06:49:21;2.77;;;1.97;;
14722;SDS011;7452;55.594;12.986;2022-07-25T06:51:48;2.43;;;1.73;;
14722;SDS011;7452;55.594;12.986;2022-07-25T06:54:14;2.73;;;1.77;;
14722;SDS011;7452;55.594;12.986;2022-07-25T06:56:42;2.63;;;1.90;;
14722;SDS011;7452;55.594;12.986;2022-07-25T06:59:09;2.70;;;1.40;;
14722;SDS011;7452;55.594;12.986;2022-07-25T07:01:37;1.80;;;1.70;;
14722;SDS011;7452;55.594;12.986;2022-07-25T07:04:05;2.00;;;1.70;;
14722;SDS011;7452;55.594;12.986;2022-07-25T07:06:32;2.27;;;2.00;;
14722;SDS011;7452;55.594;12.986;2022-07-25T07:09:00;3.97;;;1.83;;
14722;SDS011;7452;55.594;12.986;2022-07-25T07:11:27;3.83;;;1.80;;
14722;SDS011;7452;55.594;12.986;2022-07-25T07:13:54;2.20;;;1.77;;
14722;SDS011;7452;55.594;12.986;2022-07-25T07:16:21;4.83;;;1.97;;
14722;SDS011;7452;55.594;12.986;2022-07-25T07:18:48;1.77;;;1.67;;
14722;SDS011;7452;55.594;12.986;2022-07-25T07:21:16;2.67;;;1.90;;
14722;SDS011;7452;55.594;12.986;2022-07-25T07:23:43;1.93;;;1.70;;
14722;SDS011;7452;55.594;12.986;2022-07-25T07:26:10;2.73;;;1.60;;
14722;SDS011;7452;55.594;12.986;2022-07-25T07:28:37;3.73;;;1.90;;
14722;SDS011;7452;55.594;12.986;2022-07-25T07:31:04;2.20;;;1.87;;
14722;SDS011;7452;55.594;12.986;2022-07-25T07:33:31;2.33;;;1.80;;
14722;SDS011;7452;55.594;12.986;2022-07-25T07:35:59;1.83;;;1.73;;
14722;SDS011;7452;55.594;12.986;2022-07-25T07:38:27;1.80;;;1.60;;
14722;SDS011;7452;55.594;12.986;2022-07-25T07:40:54;1.90;;;1.60;;
14722;SDS011;7452;55.594;12.986;2022-07-25T07:43:21;3.43;;;1.60;;
14722;SDS011;7452;55.594;12.986;2022-07-25T07:45:48;3.03;;;1.67;;
14722;SDS011;7452;55.594;12.986;2022-07-25T07:48:16;2.10;;;1.70;;
14722;SDS011;7452;55.594;12.986;2022-07-25T07:50:43;1.80;;;1.70;;
14722;SDS011;7452;55.594;12.986;2022-07-25T07:53:10;1.87;;;1.77;;
14722;SDS011;7452;55.594;12.986;2022-07-25T07:55:38;2.17;;;1.63;;
14722;SDS011;7452;55.594;12.986;2022-07-25T07:58:13;2.50;;;1.60;;
14722;SDS011;7452;55.594;12.986;2022-07-25T08:00:41;2.07;;;1.57;;
14722;SDS011;7452;55.594;12.986;2022-07-25T08:03:09;1.73;;;1.57;;
14722;SDS011;7452;55.594;12.986;2022-07-25T08:05:37;3.33;;;1.77;;
14722;SDS011;7452;55.594;12.986;2022-07-25T08:08:05;2.50;;;2.00;;
14722;SDS011;7452;55.594;12.986;2022-07-25T08:10:34;3.50;;;1.97;;
14722;SDS011;7452;55.594;12.986;2022-07-25T08:13:11;2.43;;;1.60;;
14722;SDS011;7452;55.594;12.986;2022-07-25T08:15:39;2.57;;;1.57;;
14722;SDS011;7452;55.594;12.986;2022-07-25T08:20:30;2.37;;;1.60;;
14722;SDS011;7452;55.594;12.986;2022-07-25T08:22:57;4.30;;;1.93;;
14722;SDS011;7452;55.594;12.986;2022-07-25T08:25:24;3.00;;;1.60;;
14722;SDS011;7452;55.594;12.986;2022-07-25T08:27:51;2.20;;;1.77;;
14722;SDS011;7452;55.594;12.986;2022-07-25T08:30:18;4.17;;;1.90;;
14722;SDS011;7452;55.594;12.986;2022-07-25T08:32:46;2.97;;;1.70;;
14722;SDS011;7452;55.594;12.986;2022-07-25T08:35:14;3.13;;;1.77;;
14722;SDS011;7452;55.594;12.986;2022-07-25T08:37:42;4.23;;;2.07;;
14722;SDS011;7452;55.594;12.986;2022-07-25T08:40:10;2.20;;;1.60;;
14722;SDS011;7452;55.594;12.986;2022-07-25T08:42:38;2.60;;;1.80;;
14722;SDS011;7452;55.594;12.986;2022-07-25T08:45:06;1.60;;;1.50;;
14722;SDS011;7452;55.594;12.986;2022-07-25T08:47:35;3.53;;;1.87;;
14722;SDS011;7452;55.594;12.986;2022-07-25T08:50:02;1.53;;;1.43;;
14722;SDS011;7452;55.594;12.986;2022-07-25T08:52:30;1.77;;;1.50;;
14722;SDS011;7452;55.594;12.986;2022-07-25T08:55:01;2.93;;;1.60;;
14722;SDS011;7452;55.594;12.986;2022-07-25T08:57:29;2.57;;;1.57;;
14722;SDS011;7452;55.594;12.986;2022-07-25T08:59:56;1.80;;;1.70;;
14722;SDS011;7452;55.594;12.986;2022-07-25T09:02:24;2.10;;;1.90;;
14722;SDS011;7452;55.594;12.986;2022-07-25T09:04:52;2.77;;;1.87;;
14722;SDS011;7452;55.594;12.986;2022-07-25T09:07:28;3.90;;;1.83;;
14722;SDS011;7452;55.594;12.986;2022-07-25T09:09:56;1.80;;;1.70;;
14722;SDS011;7452;55.594;12.986;2022-07-25T09:12:25;2.50;;;1.90;;
14722;SDS011;7452;55.594;12.986;2022-07-25T09:14:53;2.53;;;2.00;;
14722;SDS011;7452;55.594;12.986;2022-07-25T09:17:20;2.30;;;1.80;;
14722;SDS011;7452;55.594;12.986;2022-07-25T09:19:50;1.70;;;1.60;;
14722;SDS011;7452;55.594;12.986;2022-07-25T09:22:18;3.03;;;1.67;;
14722;SDS011;7452;55.594;12.986;2022-07-25T09:24:45;3.07;;;1.70;;
14722;SDS011;7452;55.594;12.986;2022-07-25T09:27:12;1.70;;;1.60;;
14722;SDS011;7452;55.594;12.986;2022-07-25T09:29:40;2.53;;;1.90;;
14722;SDS011;7452;55.594;12.986;2022-07-25T09:32:15;2.80;;;2.00;;
14722;SDS011;7452;55.594;12.986;2022-07-25T09:34:44;2.73;;;1.80;;
14722;SDS011;7452;55.594;12.986;2022-07-25T09:37:13;1.90;;;1.60;;
14722;SDS011;7452;55.594;12.986;2022-07-25T09:39:43;3.70;;;1.77;;
14722;SDS011;7452;55.594;12.986;2022-07-25T09:42:18;3.53;;;1.60;;
14722;SDS011;7452;55.594;12.986;2022-07-25T09:44:58;2.60;;;1.77;;
14722;SDS011;7452;55.594;12.986;2022-07-25T09:47:27;4.53;;;1.93;;
14722;SDS011;7452;55.594;12.986;2022-07-25T09:49:54;2.67;;;1.47;;
14722;SDS011;7452;55.594;12.986;2022-07-25T09:52:22;2.50;;;1.50;;
14722;SDS011;7452;55.594;12.986;2022-07-25T09:54:49;1.97;;;1.80;;
14722;SDS011;7452;55.594;12.986;2022-07-25T09:57:16;4.80;;;1.90;;
14722;SDS011;7452;55.594;12.986;2022-07-25T09:59:43;3.37;;;1.80;;
14722;SDS011;7452;55.594;12.986;2022-07-25T10:02:14;4.17;;;1.90;;
14722;SDS011;7452;55.594;12.986;2022-07-25T10:04:55;2.03;;;1.60;;
14722;SDS011;7452;55.594;12.986;2022-07-25T10:07:35;4.53;;;1.90;;
14722;SDS011;7452;55.594;12.986;2022-07-25T10:10:04;3.90;;;2.00;;
14722;SDS011;7452;55.594;12.986;2022-07-25T10:12:31;3.42;;;1.73;;
14722;SDS011;7452;55.594;12.986;2022-07-25T10:15:03;3.08;;;1.95;;
14722;SDS011;7452;55.594;12.986;2022-07-25T10:17:33;2.38;;;1.70;;
14722;SDS011;7452;55.594;12.986;2022-07-25T10:20:02;2.42;;;1.50;;
14722;SDS011;7452;55.594;12.986;2022-07-25T10:22:34;1.70;;;1.60;;
14722;SDS011;7452;55.594;12.986;2022-07-25T10:25:06;5.28;;;1.65;;
14722;SDS011;7452;55.594;12.986;2022-07-25T10:27:40;3.15;;;1.75;;
14722;SDS011;7452;55.594;12.986;2022-07-25T10:30:18;1.50;;;1.40;;
14722;SDS011;7452;55.594;12.986;2022-07-25T10:32:54;3.03;;;1.60;;
14722;SDS011;7452;55.594;12.986;2022-07-25T10:35:23;2.53;;;1.40;;
14722;SDS011;7452;55.594;12.986;2022-07-25T10:37:51;2.92;;;1.75;;
14722;SDS011;7452;55.594;12.986;2022-07-25T10:40:24;3.33;;;1.48;;
14722;SDS011;7452;55.594;12.986;2022-07-25T10:42:55;3.35;;;1.95;;
14722;SDS011;7452;55.594;12.986;2022-07-25T10:45:25;2.67;;;1.55;;
14722;SDS011;7452;55.594;12.986;2022-07-25T10:48:07;2.22;;;1.50;;
14722;SDS011;7452;55.594;12.986;2022-07-25T10:50:45;5.63;;;1.50;;
14722;SDS011;7452;55.594;12.986;2022-07-25T10:53:26;1.52;;;1.42;;
14722;SDS011;7452;55.594;12.986;2022-07-25T10:55:56;1.55;;;1.40;;
14722;SDS011;7452;55.594;12.986;2022-07-25T10:58:23;2.70;;;1.48;;
14722;SDS011;7452;55.594;12.986;2022-07-25T11:00:50;2.25;;;1.27;;
14722;SDS011;7452;55.594;12.986;2022-07-25T11:03:20;1.85;;;1.75;;
14722;SDS011;7452;55.594;12.986;2022-07-25T11:05:47;3.65;;;1.55;;
14722;SDS011;7452;55.594;12.986;2022-07-25T11:08:28;3.67;;;1.75;;
14722;SDS011;7452;55.594;12.986;2022-07-25T11:10:56;3.03;;;1.55;;
14722;SDS011;7452;55.594;12.986;2022-07-25T11:13:23;3.10;;;1.50;;
14722;SDS011;7452;55.594;12.986;2022-07-25T11:15:50;2.00;;;1.67;;
14722;SDS011;7452;55.594;12.986;2022-07-25T11:18:30;3.20;;;1.65;;
14722;SDS011;7452;55.594;12.986;2022-07-25T11:20:59;2.70;;;1.58;;
14722;SDS011;7452;55.594;12.986;2022-07-25T11:23:26;3.47;;;1.73;;
14722;SDS011;7452;55.594;12.986;2022-07-25T11:26:02;1.67;;;1.50;;
14722;SDS011;7452;55.594;12.986;2022-07-25T11:28:39;5.75;;;1.80;;
14722;SDS011;7452;55.594;12.986;2022-07-25T11:31:08;5.00;;;1.75;;
14722;SDS011;7452;55.594;12.986;2022-07-25T11:33:37;1.63;;;1.40;;
14722;SDS011;7452;55.594;12.986;2022-07-25T11:36:06;3.15;;;1.42;;
14722;SDS011;7452;55.594;12.986;2022-07-25T11:38:35;4.68;;;1.38;;
14722;SDS011;7452;55.594;12.986;2022-07-25T11:41:03;3.83;;;1.48;;
14722;SDS011;7452;55.594;12.986;2022-07-25T11:43:30;2.63;;;1.23;;
14722;SDS011;7452;55.594;12.986;2022-07-25T11:45:58;3.72;;;1.60;;
14722;SDS011;7452;55.594;12.986;2022-07-25T11:48:33;3.70;;;1.52;;
14722;SDS011;7452;55.594;12.986;2022-07-25T11:51:11;3.83;;;1.40;;
14722;SDS011;7452;55.594;12.986;2022-07-25T11:53:41;4.65;;;1.48;;
14722;SDS011;7452;55.594;12.986;2022-07-25T11:56:10;2.47;;;1.63;;
14722;SDS011;7452;55.594;12.986;2022-07-25T11:58:42;4.30;;;1.80;;
14722;SDS011;7452;55.594;12.986;2022-07-25T12:01:11;4.13;;;1.50;;
14722;SDS011;7452;55.594;12.986;2022-07-25T12:03:39;3.70;;;1.63;;
14722;SDS011;7452;55.594;12.986;2022-07-25T12:06:07;2.55;;;1.48;;
14722;SDS011;7452;55.594;12.986;2022-07-25T12:08:40;4.40;;;1.42;;
14722;SDS011;7452;55.594;12.986;2022-07-25T12:11:18;3.25;;;1.55;;
14722;SDS011;7452;55.594;12.986;2022-07-25T12:13:45;4.30;;;1.58;;
14722;SDS011;7452;55.594;12.986;2022-07-25T12:16:13;3.65;;;1.52;;
14722;SDS011;7452;55.594;12.986;2022-07-25T12:18:41;3.92;;;1.60;;
14722;SDS011;7452;55.594;12.986;2022-07-25T12:21:08;3.03;;;1.50;;
14722;SDS011;7452;55.594;12.986;2022-07-25T12:23:35;3.15;;;1.70;;
14722;SDS011;7452;55.594;12.986;2022-07-25T12:26:07;4.53;;;1.70;;
14722;SDS011;7452;55.594;12.986;2022-07-25T12:28:37;4.32;;;1.55;;
14722;SDS011;7452;55.594;12.986;2022-07-25T12:31:04;2.55;;;1.63;;
14722;SDS011;7452;55.594;12.986;2022-07-25T12:33:31;5.30;;;1.70;;
14722;SDS011;7452;55.594;12.986;2022-07-25T12:35:58;5.18;;;1.83;;
14722;SDS011;7452;55.594;12.986;2022-07-25T12:38:26;2.35;;;1.75;;
14722;SDS011;7452;55.594;12.986;2022-07-25T12:40:53;2.78;;;1.52;;
14722;SDS011;7452;55.594;12.986;2022-07-25T12:43:21;4.85;;;1.70;;
14722;SDS011;7452;55.594;12.986;2022-07-25T12:45:48;1.83;;;1.50;;
14722;SDS011;7452;55.594;12.986;2022-07-25T12:48:15;3.58;;;1.58;;
14722;SDS011;7452;55.594;12.986;2022-07-25T12:50:43;2.55;;;1.70;;
14722;SDS011;7452;55.594;12.986;2022-07-25T12:53:10;2.05;;;1.85;;
14722;SDS011;7452;55.594;12.986;2022-07-25T12:55:38;2.70;;;1.80;;
14722;SDS011;7452;55.594;12.986;2022-07-25T12:58:05;4.60;;;2.28;;
14722;SDS011;7452;55.594;12.986;2022-07-25T13:00:34;4.63;;;2.00;;
14722;SDS011;7452;55.594;12.986;2022-07-25T13:03:01;2.70;;;1.90;;
14722;SDS011;7452;55.594;12.986;2022-07-25T13:05:28;5.60;;;1.98;;
14722;SDS011;7452;55.594;12.986;2022-07-25T13:07:55;3.58;;;2.20;;
14722;SDS011;7452;55.594;12.986;2022-07-25T13:10:22;6.05;;;1.88;;
14722;SDS011;7452;55.594;12.986;2022-07-25T13:12:50;3.03;;;2.20;;
14722;SDS011;7452;55.594;12.986;2022-07-25T13:15:17;5.35;;;2.25;;
14722;SDS011;7452;55.594;12.986;2022-07-25T13:17:48;4.63;;;1.92;;
14722;SDS011;7452;55.594;12.986;2022-07-25T13:20:15;5.88;;;2.20;;
14722;SDS011;7452;55.594;12.986;2022-07-25T13:22:42;4.00;;;2.40;;
14722;SDS011;7452;55.594;12.986;2022-07-25T13:25:09;5.90;;;2.13;;
14722;SDS011;7452;55.594;12.986;2022-07-25T13:27:36;4.10;;;2.25;;
14722;SDS011;7452;55.594;12.986;2022-07-25T13:30:04;5.32;;;2.25;;
14722;SDS011;7452;55.594;12.986;2022-07-25T13:32:32;6.22;;;2.45;;
14722;SDS011;7452;55.594;12.986;2022-07-25T13:35:02;5.72;;;2.50;;
14722;SDS011;7452;55.594;12.986;2022-07-25T13:37:30;5.13;;;2.40;;
14722;SDS011;7452;55.594;12.986;2022-07-25T13:39:57;5.63;;;2.47;;
14722;SDS011;7452;55.594;12.986;2022-07-25T13:42:24;5.15;;;2.45;;
14722;SDS011;7452;55.594;12.986;2022-07-25T13:44:51;4.30;;;2.40;;
14722;SDS011;7452;55.594;12.986;2022-07-25T13:47:18;5.25;;;2.38;;
14722;SDS011;7452;55.594;12.986;2022-07-25T13:49:45;3.47;;;2.47;;
14722;SDS011;7452;55.594;12.986;2022-07-25T13:52:14;3.08;;;1.90;;
14722;SDS011;7452;55.594;12.986;2022-07-25T13:54:41;2.90;;;2.30;;
14722;SDS011;7452;55.594;12.986;2022-07-25T13:57:08;3.83;;;2.72;;
14722;SDS011;7452;55.594;12.986;2022-07-25T13:59:35;5.72;;;2.40;;
14722;SDS011;7452;55.594;12.986;2022-07-25T14:02:02;3.83;;;2.67;;
14722;SDS011;7452;55.594;12.986;2022-07-25T14:04:29;3.65;;;2.60;;
14722;SDS011;7452;55.594;12.986;2022-07-25T14:06:57;9.18;;;2.90;;
14722;SDS011;7452;55.594;12.986;2022-07-25T14:09:27;4.95;;;2.90;;
14722;SDS011;7452;55.594;12.986;2022-07-25T14:11:54;3.08;;;2.55;;
14722;SDS011;7452;55.594;12.986;2022-07-25T14:14:21;5.73;;;3.20;;
14722;SDS011;7452;55.594;12.986;2022-07-25T14:16:48;5.10;;;3.05;;
14722;SDS011;7452;55.594;12.986;2022-07-25T14:19:14;5.00;;;2.92;;
14722;SDS011;7452;55.594;12.986;2022-07-25T14:21:42;5.20;;;2.63;;
14722;SDS011;7452;55.594;12.986;2022-07-25T14:24:09;8.23;;;3.15;;
14722;SDS011;7452;55.594;12.986;2022-07-25T14:26:37;5.65;;;3.20;;
14722;SDS011;7452;55.594;12.986;2022-07-25T14:29:04;3.72;;;2.90;;
14722;SDS011;7452;55.594;12.986;2022-07-25T14:31:35;6.28;;;3.42;;
14722;SDS011;7452;55.594;12.986;2022-07-25T14:34:03;3.53;;;3.07;;
14722;SDS011;7452;55.594;12.986;2022-07-25T14:36:30;5.13;;;3.10;;
14722;SDS011;7452;55.594;12.986;2022-07-25T14:38:57;3.30;;;3.00;;
14722;SDS011;7452;55.594;12.986;2022-07-25T14:41:24;5.63;;;3.60;;
14722;SDS011;7452;55.594;12.986;2022-07-25T14:43:53;5.45;;;2.90;;
14722;SDS011;7452;55.594;12.986;2022-07-25T14:46:20;5.67;;;3.23;;
14722;SDS011;7452;55.594;12.986;2022-07-25T14:48:47;4.35;;;3.58;;
14722;SDS011;7452;55.594;12.986;2022-07-25T14:51:14;8.65;;;3.17;;
14722;SDS011;7452;55.594;12.986;2022-07-25T14:53:42;3.00;;;2.72;;
14722;SDS011;7452;55.594;12.986;2022-07-25T14:56:09;4.53;;;2.88;;